createdAt,value
2022-09-06T00:00:28.900Z,42.29
2022-09-06T00:02:55.279Z,42.50
2022-09-06T00:05:21.707Z,41.81
2022-09-06T00:07:48.075Z,42.37
2022-09-06T00:10:14.440Z,42.49
2022-09-06T00:15:07.156Z,42.34
2022-09-06T00:17:33.509Z,42.11
2022-09-06T00:19:59.903Z,42.02
2022-09-06T00:22:26.284Z,42.17
2022-09-06T00:24:52.645Z,41.91
2022-09-06T00:27:19.024Z,41.98
2022-09-06T00:29:45.383Z,42.12
2022-09-06T00:32:11.781Z,41.95
2022-09-06T00:34:38.139Z,42.11
2022-09-06T00:37:04.495Z,41.95
2022-09-06T00:39:30.924Z,41.86
2022-09-06T00:42:00.087Z,41.71
2022-09-06T00:44:29.215Z,41.63
2022-09-06T00:46:55.576Z,41.33
2022-09-06T00:49:21.921Z,41.72
2022-09-06T00:51:48.290Z,41.33
2022-09-06T00:54:14.624Z,41.16
2022-09-06T00:56:41.063Z,41.37
2022-09-06T00:59:07.453Z,41.75
2022-09-06T01:01:33.904Z,41.88
2022-09-06T01:04:03.114Z,41.71
2022-09-06T01:06:32.254Z,41.57
2022-09-06T01:08:58.647Z,41.74
2022-09-06T01:11:25.017Z,41.80
2022-09-06T01:13:54.151Z,41.65
2022-09-06T01:16:20.507Z,41.77
2022-09-06T01:18:49.676Z,41.84
2022-09-06T01:21:18.816Z,42.06
2022-09-06T01:23:45.149Z,42.04
2022-09-06T01:26:11.536Z,41.76
2022-09-06T01:28:40.689Z,42.03
2022-09-06T01:31:07.240Z,41.76
2022-09-06T01:33:36.383Z,42.25
2022-09-06T01:36:02.707Z,42.40
2022-09-06T01:38:31.829Z,42.85
2022-09-06T01:40:58.157Z,42.87
2022-09-06T01:43:24.514Z,42.45
2022-09-06T01:45:53.704Z,42.68
2022-09-06T01:48:20.062Z,42.81
2022-09-06T01:50:46.407Z,42.92
2022-09-06T01:53:12.863Z,42.67
2022-09-06T01:55:42.013Z,43.23
2022-09-06T01:58:08.373Z,43.15
2022-09-06T02:00:34.725Z,43.09
2022-09-06T02:03:01.098Z,43.19
2022-09-06T02:05:27.454Z,43.14
2022-09-06T02:07:56.571Z,43.30
2022-09-06T02:10:22.898Z,43.18
2022-09-06T02:12:49.236Z,43.19
2022-09-06T02:15:18.372Z,43.00
2022-09-06T02:17:44.708Z,43.26
2022-09-06T02:20:11.070Z,43.63
2022-09-06T02:22:37.421Z,43.20
2022-09-06T02:25:03.808Z,43.23
2022-09-06T02:27:32.963Z,43.14
2022-09-06T02:29:59.312Z,42.66
2022-09-06T02:32:25.674Z,43.80
2022-09-06T02:34:52.027Z,43.12
2022-09-06T02:37:18.376Z,42.98
2022-09-06T02:39:44.834Z,43.06
2022-09-06T02:42:11.242Z,43.18
2022-09-06T02:44:37.608Z,43.37
2022-09-06T02:47:04.047Z,43.13
2022-09-06T02:49:30.393Z,43.18
2022-09-06T02:51:56.737Z,43.48
2022-09-06T02:54:23.094Z,43.90
2022-09-06T02:56:52.229Z,43.84
2022-09-06T02:59:18.988Z,43.40
2022-09-06T03:01:45.383Z,43.29
2022-09-06T03:04:11.811Z,43.43
2022-09-06T03:06:38.197Z,43.61
2022-09-06T03:09:04.580Z,43.41
2022-09-06T03:11:30.959Z,43.26
2022-09-06T03:13:57.337Z,43.42
2022-09-06T03:16:23.711Z,43.06
2022-09-06T03:18:50.092Z,43.43
2022-09-06T03:21:16.577Z,43.24
2022-09-06T03:23:42.945Z,43.24
2022-09-06T03:26:09.310Z,43.47
2022-09-06T03:28:35.662Z,42.93
2022-09-06T03:31:04.859Z,43.17
2022-09-06T03:33:31.322Z,43.54
2022-09-06T03:35:57.676Z,43.25
2022-09-06T03:38:24.013Z,43.12
2022-09-06T03:40:50.385Z,43.47
2022-09-06T03:43:16.872Z,43.88
2022-09-06T03:45:43.273Z,43.59
2022-09-06T03:48:09.674Z,43.55
2022-09-06T03:50:36.031Z,43.59
2022-09-06T03:53:02.389Z,43.91
2022-09-06T03:55:28.722Z,43.96
2022-09-06T03:57:55.083Z,43.93
2022-09-06T04:00:21.423Z,44.05
2022-09-06T04:02:47.824Z,43.89
2022-09-06T04:05:14.226Z,44.14
2022-09-06T04:07:40.559Z,43.94
2022-09-06T04:10:06.892Z,44.20
2022-09-06T04:12:33.248Z,43.71
2022-09-06T04:14:59.606Z,43.82
2022-09-06T04:17:26.013Z,43.74
2022-09-06T04:19:52.365Z,43.87
2022-09-06T04:22:18.718Z,43.92
2022-09-06T04:24:45.049Z,43.89
2022-09-06T04:27:11.475Z,43.69
2022-09-06T04:29:37.820Z,43.29
2022-09-06T04:32:04.248Z,43.49
2022-09-06T04:34:30.675Z,43.48
2022-09-06T04:36:57.054Z,43.85
2022-09-06T04:39:23.470Z,43.86
2022-09-06T04:41:49.822Z,44.01
2022-09-06T04:44:16.189Z,44.20
2022-09-06T04:46:42.540Z,43.72
2022-09-06T04:49:08.932Z,43.99
2022-09-06T04:51:35.304Z,44.10
2022-09-06T04:54:01.671Z,44.17
2022-09-06T04:56:28.053Z,44.19
2022-09-06T04:58:54.460Z,44.74
2022-09-06T05:01:20.951Z,44.31
2022-09-06T05:03:47.498Z,44.28
2022-09-06T05:06:13.887Z,44.52
2022-09-06T05:08:40.250Z,44.30
2022-09-06T05:11:06.650Z,44.35
2022-09-06T05:13:33.015Z,44.53
2022-09-06T05:15:59.444Z,44.61
2022-09-06T05:18:25.906Z,44.39
2022-09-06T05:20:52.563Z,44.47
2022-09-06T05:23:18.915Z,44.71
2022-09-06T05:25:45.255Z,44.35
2022-09-06T05:28:11.642Z,44.90
2022-09-06T05:30:38.066Z,44.36
2022-09-06T05:33:04.473Z,44.71
2022-09-06T05:35:30.859Z,44.86
2022-09-06T05:37:57.303Z,45.40
2022-09-06T05:40:23.910Z,45.56
2022-09-06T05:42:50.644Z,45.43
2022-09-06T05:45:18.108Z,45.90
2022-09-06T05:47:44.806Z,46.46
2022-09-06T05:50:11.160Z,46.01
2022-09-06T05:52:37.529Z,46.63
2022-09-06T05:55:03.926Z,46.49
2022-09-06T05:57:30.294Z,46.25
2022-09-06T05:59:56.748Z,46.77
2022-09-06T06:02:23.253Z,46.86
2022-09-06T06:04:49.684Z,47.75
2022-09-06T06:07:16.082Z,47.28
2022-09-06T06:09:42.456Z,47.46
2022-09-06T06:12:09.715Z,47.45
2022-09-06T06:14:36.105Z,46.62
2022-09-06T06:17:02.587Z,47.53
2022-09-06T06:19:29.009Z,47.00
2022-09-06T06:21:55.401Z,47.72
2022-09-06T06:24:21.771Z,47.96
2022-09-06T06:26:48.163Z,47.24
2022-09-06T06:29:15.392Z,47.98
2022-09-06T06:31:41.868Z,47.32
2022-09-06T06:34:08.384Z,47.36
2022-09-06T06:36:34.788Z,47.16
2022-09-06T06:39:01.157Z,47.17
2022-09-06T06:41:27.510Z,47.03
2022-09-06T06:43:53.861Z,46.72
2022-09-06T06:46:20.291Z,47.22
2022-09-06T06:48:47.400Z,46.69
2022-09-06T06:51:15.055Z,46.09
2022-09-06T06:53:41.453Z,46.78
2022-09-06T06:56:07.807Z,45.92
2022-09-06T06:58:34.168Z,44.64
2022-09-06T07:01:03.478Z,44.76
2022-09-06T07:03:29.933Z,43.41
2022-09-06T07:06:12.341Z,43.82
2022-09-06T07:08:39.285Z,42.68
2022-09-06T07:11:05.694Z,42.90
2022-09-06T07:13:32.062Z,42.18
2022-09-06T07:15:58.417Z,42.32
2022-09-06T07:18:24.870Z,41.53
2022-09-06T07:26:29.441Z,40.39
2022-09-06T07:28:58.646Z,41.09
2022-09-06T07:34:11.364Z,40.96
2022-09-06T07:36:37.711Z,40.50
2022-09-06T07:39:04.107Z,40.13
2022-09-06T07:41:30.434Z,39.91
2022-09-06T07:43:56.802Z,39.75
2022-09-06T07:46:26.028Z,39.66
2022-09-06T07:48:55.187Z,38.17
2022-09-06T07:51:21.494Z,38.53
2022-09-06T07:53:47.827Z,38.07
2022-09-06T07:56:14.162Z,37.20
2022-09-06T07:58:43.350Z,37.36
2022-09-06T08:01:09.695Z,37.83
2022-09-06T08:03:39.003Z,38.08
2022-09-06T08:06:08.311Z,37.50
2022-09-06T08:11:20.944Z,37.67
2022-09-06T08:13:50.101Z,38.28
2022-09-06T08:16:16.517Z,38.38
2022-09-06T08:18:42.871Z,37.29
2022-09-06T08:21:12.394Z,36.78
2022-09-06T08:23:41.700Z,36.53
2022-09-06T08:26:08.033Z,35.75
2022-09-06T08:28:37.176Z,35.17
2022-09-06T08:31:06.376Z,35.51
2022-09-06T08:33:32.849Z,35.24
2022-09-06T08:36:01.981Z,34.55
2022-09-06T08:38:28.316Z,35.04
2022-09-06T08:40:54.639Z,35.05
2022-09-06T08:43:23.850Z,35.56
2022-09-06T08:45:55.623Z,35.15
2022-09-06T08:48:25.021Z,35.82
2022-09-06T08:50:54.187Z,35.35
2022-09-06T08:53:20.538Z,35.57
2022-09-06T08:55:49.743Z,35.01
2022-09-06T08:58:16.073Z,34.88
2022-09-06T09:00:45.220Z,35.75
2022-09-06T09:03:16.440Z,35.78
2022-09-06T09:05:43.087Z,35.72
2022-09-06T09:08:09.440Z,36.13
2022-09-06T09:10:38.597Z,36.30
2022-09-06T09:13:04.951Z,36.44
2022-09-06T09:15:37.140Z,36.37
2022-09-06T09:18:06.473Z,36.36
2022-09-06T09:20:32.792Z,36.67
2022-09-06T09:23:01.935Z,37.03
2022-09-06T09:25:31.073Z,36.78
2022-09-06T09:28:00.194Z,36.98
2022-09-06T09:33:18.455Z,37.04
2022-09-06T09:35:44.774Z,37.28
2022-09-06T09:38:12.249Z,37.69
2022-09-06T09:40:41.537Z,37.92
2022-09-06T09:43:10.689Z,37.41
2022-09-06T09:45:39.830Z,37.56
2022-09-06T09:48:06.185Z,36.89
2022-09-06T09:50:32.498Z,37.41
2022-09-06T09:53:01.696Z,37.20
2022-09-06T09:55:30.828Z,37.36
2022-09-06T09:57:59.951Z,37.07
2022-09-06T10:00:29.195Z,37.33
2022-09-06T10:02:55.609Z,37.20
2022-09-06T10:05:24.745Z,36.98
2022-09-06T10:07:53.867Z,37.53
2022-09-06T10:10:20.207Z,37.53
2022-09-06T10:12:46.543Z,37.69
2022-09-06T10:15:12.888Z,37.55
2022-09-06T10:17:42.025Z,37.68
2022-09-06T10:20:08.356Z,37.71
2022-09-06T10:22:34.713Z,38.15
2022-09-06T10:25:01.101Z,36.67
2022-09-06T10:27:27.469Z,36.94
2022-09-06T10:29:53.880Z,37.32
2022-09-06T10:32:20.276Z,37.33
2022-09-06T10:34:46.604Z,37.96
2022-09-06T10:37:12.966Z,37.95
2022-09-06T10:39:39.365Z,37.77
2022-09-06T10:42:05.771Z,36.85
2022-09-06T10:44:32.153Z,37.05
2022-09-06T10:46:58.653Z,36.63
2022-09-06T10:49:27.838Z,35.98
2022-09-06T10:51:56.962Z,36.43
2022-09-06T10:54:23.308Z,36.83
2022-09-06T10:56:49.675Z,36.86
2022-09-06T11:02:02.530Z,37.96
2022-09-06T11:04:29.286Z,38.12
2022-09-06T11:06:55.678Z,38.52
2022-09-06T11:09:22.092Z,37.89
2022-09-06T11:11:48.466Z,37.55
2022-09-06T11:14:15.697Z,36.99
2022-09-06T11:16:42.423Z,37.00
2022-09-06T11:19:08.786Z,37.30
2022-09-06T11:21:35.189Z,36.37
2022-09-06T11:24:01.572Z,35.30
2022-09-06T11:26:27.914Z,35.49
2022-09-06T11:28:54.269Z,34.78
2022-09-06T11:34:07.033Z,35.74
2022-09-06T11:36:33.438Z,35.91
2022-09-06T11:38:59.779Z,36.58
2022-09-06T11:41:26.161Z,36.83
2022-09-06T11:43:52.509Z,36.31
2022-09-06T11:46:20.652Z,36.95
2022-09-06T11:48:47.100Z,37.27
2022-09-06T11:51:13.506Z,35.57
2022-09-06T11:53:42.668Z,35.39
2022-09-06T11:56:09.067Z,34.63
2022-09-06T11:58:35.419Z,36.79
2022-09-06T12:01:01.822Z,36.82
2022-09-06T12:06:14.591Z,35.05
2022-09-06T12:08:43.729Z,36.88
2022-09-06T12:11:10.083Z,35.39
2022-09-06T12:13:39.254Z,35.11
2022-09-06T12:16:05.775Z,35.43
2022-09-06T12:18:34.981Z,35.42
2022-09-06T12:21:04.138Z,34.11
2022-09-06T12:23:33.301Z,34.98
2022-09-06T12:25:59.639Z,35.49
2022-09-06T12:28:28.871Z,34.89
2022-09-06T12:30:58.210Z,35.49
2022-09-06T12:33:24.579Z,33.95
2022-09-06T12:35:58.379Z,35.63
2022-09-06T12:38:28.217Z,35.96
2022-09-06T12:40:57.469Z,34.04
2022-09-06T12:43:23.774Z,35.19
2022-09-06T12:45:52.952Z,36.36
2022-09-06T12:48:19.269Z,36.16
2022-09-06T12:50:48.393Z,36.40
2022-09-06T12:53:15.966Z,36.44
2022-09-06T12:55:42.321Z,36.62
2022-09-06T12:58:08.696Z,36.73
2022-09-06T13:00:37.844Z,36.43
2022-09-06T13:03:06.980Z,36.93
2022-09-06T13:05:33.331Z,35.21
2022-09-06T13:07:59.683Z,35.41
2022-09-06T13:10:26.016Z,36.16
2022-09-06T13:12:52.332Z,36.65
2022-09-06T13:15:18.750Z,36.27
2022-09-06T13:17:45.107Z,34.19
2022-09-06T13:20:11.471Z,32.77
2022-09-06T13:22:40.611Z,31.24
2022-09-06T13:25:09.746Z,31.10
2022-09-06T13:27:38.894Z,30.84
2022-09-06T13:30:05.231Z,32.12
2022-09-06T13:32:31.579Z,31.28
2022-09-06T13:34:57.932Z,31.86
2022-09-06T13:37:27.117Z,32.03
2022-09-06T13:39:53.535Z,31.36
2022-09-06T13:42:19.918Z,32.77
2022-09-06T13:44:46.242Z,33.04
2022-09-06T13:47:12.649Z,32.81
2022-09-06T13:49:38.969Z,33.20
2022-09-06T13:52:05.316Z,34.46
2022-09-06T13:54:31.651Z,32.00
2022-09-06T13:57:00.788Z,32.28
2022-09-06T13:59:27.163Z,32.09
2022-09-06T14:01:53.551Z,32.02
2022-09-06T14:04:19.910Z,31.42
2022-09-06T14:06:49.043Z,31.48
2022-09-06T14:09:15.374Z,31.75
2022-09-06T14:11:48.250Z,33.52
2022-09-06T14:14:14.919Z,34.36
2022-09-06T14:16:44.171Z,33.90
2022-09-06T14:19:10.491Z,32.84
2022-09-06T14:21:39.620Z,32.67
2022-09-06T14:24:05.967Z,32.89
2022-09-06T14:26:32.313Z,33.20
2022-09-06T14:28:58.649Z,33.33
2022-09-06T14:31:27.823Z,32.20
2022-09-06T14:33:57.067Z,32.67
2022-09-06T14:36:23.516Z,31.99
2022-09-06T14:38:49.835Z,32.54
2022-09-06T14:41:16.195Z,32.60
2022-09-06T14:43:45.350Z,31.49
2022-09-06T14:46:11.874Z,31.84
2022-09-06T14:48:42.417Z,32.44
2022-09-06T14:51:09.002Z,31.80
2022-09-06T14:53:40.568Z,31.77
2022-09-06T14:56:07.316Z,31.89
2022-09-06T14:58:36.459Z,31.22
2022-09-06T15:01:05.625Z,31.72
2022-09-06T15:03:32.028Z,31.80
2022-09-06T15:05:58.341Z,31.92
2022-09-06T15:08:24.666Z,31.56
2022-09-06T15:10:53.807Z,32.13
2022-09-06T15:13:23.145Z,32.16
2022-09-06T15:15:52.321Z,32.23
2022-09-06T15:18:18.672Z,32.63
2022-09-06T15:20:44.982Z,32.69
2022-09-06T15:23:26.542Z,32.27
2022-09-06T15:25:55.680Z,32.77
2022-09-06T15:28:22.000Z,32.05
2022-09-06T15:30:48.432Z,32.53
2022-09-06T15:33:14.808Z,32.00
2022-09-06T15:35:43.963Z,32.02
2022-09-06T15:38:10.281Z,31.76
2022-09-06T15:40:36.624Z,31.99
2022-09-06T15:43:02.988Z,31.65
2022-09-06T15:45:29.323Z,31.76
2022-09-06T15:47:58.485Z,31.83
2022-09-06T15:50:47.478Z,31.91
2022-09-06T15:53:11.173Z,31.50
2022-09-06T15:55:41.701Z,31.83
2022-09-06T15:58:10.929Z,31.44
2022-09-06T16:00:40.082Z,32.08
2022-09-06T16:03:06.527Z,31.94
2022-09-06T16:08:22.255Z,32.00
2022-09-06T16:10:48.685Z,32.26
2022-09-06T16:13:15.115Z,31.89
2022-09-06T16:15:44.287Z,31.78
2022-09-06T16:18:13.578Z,32.17
2022-09-06T16:20:40.182Z,31.92
2022-09-06T16:23:06.554Z,31.85
2022-09-06T16:25:35.973Z,31.95
2022-09-06T16:28:03.584Z,32.23
2022-09-06T16:30:32.801Z,31.88
2022-09-06T16:33:02.097Z,32.20
2022-09-06T16:35:31.711Z,32.09
2022-09-06T16:38:01.341Z,32.00
2022-09-06T16:40:30.756Z,32.12
2022-09-06T16:43:00.017Z,32.32
2022-09-06T16:45:29.221Z,32.47
2022-09-06T16:47:58.531Z,32.62
2022-09-06T16:50:27.818Z,32.49
2022-09-06T16:52:54.703Z,32.64
2022-09-06T16:55:21.230Z,32.73
2022-09-06T16:57:47.638Z,33.02
2022-09-06T17:00:14.904Z,32.99
2022-09-06T17:02:46.413Z,33.12
2022-09-06T17:05:13.670Z,33.09
2022-09-06T17:07:40.118Z,32.77
2022-09-06T17:10:06.674Z,33.08
2022-09-06T17:12:35.968Z,32.60
2022-09-06T17:15:02.805Z,33.07
2022-09-06T17:17:31.937Z,32.91
2022-09-06T17:19:58.442Z,33.72
2022-09-06T17:22:24.857Z,33.37
2022-09-06T17:24:51.213Z,33.42
2022-09-06T17:27:18.082Z,33.56
2022-09-06T17:29:44.631Z,33.19
2022-09-06T17:32:11.057Z,33.29
2022-09-06T17:34:40.255Z,33.44
2022-09-06T17:37:06.995Z,32.55
2022-09-06T17:39:33.731Z,32.30
2022-09-06T17:42:00.420Z,32.41
2022-09-06T17:44:29.719Z,31.94
2022-09-06T17:47:14.569Z,31.99
2022-09-06T17:49:43.962Z,31.60
2022-09-06T17:52:10.612Z,31.15
2022-09-06T17:54:37.287Z,30.72
2022-09-06T17:57:04.108Z,30.55
2022-09-06T17:59:35.041Z,30.78
2022-09-06T18:02:02.176Z,31.06
2022-09-06T18:04:28.879Z,31.05
2022-09-06T18:06:55.566Z,31.02
2022-09-06T18:09:22.083Z,30.54
2022-09-06T18:11:49.020Z,30.92
2022-09-06T18:14:15.802Z,30.69
2022-09-06T18:16:42.807Z,30.89
2022-09-06T18:19:10.019Z,31.26
2022-09-06T18:21:38.304Z,31.99
2022-09-06T18:24:04.875Z,32.41
2022-09-06T18:26:31.524Z,32.61
2022-09-06T18:28:58.195Z,32.75
2022-09-06T18:31:24.835Z,33.01
2022-09-06T18:33:51.695Z,33.37
2022-09-06T18:36:18.456Z,33.21
2022-09-06T18:38:45.068Z,33.19
2022-09-06T18:41:11.725Z,33.50
2022-09-06T18:43:38.351Z,34.72
2022-09-06T18:46:04.831Z,35.45
2022-09-06T18:48:31.578Z,35.20
2022-09-06T18:50:59.915Z,36.03
2022-09-06T18:53:26.590Z,36.09
2022-09-06T18:55:53.286Z,36.71
2022-09-06T18:58:19.712Z,36.49
2022-09-06T19:00:46.159Z,36.86
2022-09-06T19:03:12.728Z,36.75
2022-09-06T19:05:39.128Z,37.24
2022-09-06T19:08:05.608Z,37.13
2022-09-06T19:10:32.111Z,36.81
2022-09-06T19:12:58.644Z,37.72
2022-09-06T19:15:25.130Z,37.51
2022-09-06T19:17:51.649Z,38.01
2022-09-06T19:20:18.936Z,38.32
2022-09-06T19:22:45.343Z,38.16
2022-09-06T19:25:11.838Z,38.11
2022-09-06T19:27:38.225Z,38.04
2022-09-06T19:30:04.749Z,38.24
2022-09-06T19:32:31.193Z,37.53
2022-09-06T19:34:57.716Z,38.05
2022-09-06T19:37:24.266Z,37.70
2022-09-06T19:39:50.726Z,37.49
2022-09-06T19:42:17.162Z,37.52
2022-09-06T19:44:43.577Z,37.82
2022-09-06T19:47:10.116Z,38.02
2022-09-06T19:49:36.829Z,38.09
2022-09-06T19:52:03.255Z,37.95
2022-09-06T19:54:30.019Z,37.89
2022-09-06T19:56:56.594Z,35.96
2022-09-06T19:59:22.991Z,35.53
2022-09-06T20:01:49.400Z,34.72
2022-09-06T20:04:15.888Z,34.19
2022-09-06T20:06:42.301Z,34.70
2022-09-06T20:09:08.697Z,34.72
2022-09-06T20:11:35.095Z,34.06
2022-09-06T20:14:01.463Z,34.47
2022-09-06T20:16:27.875Z,34.46
2022-09-06T20:18:54.258Z,33.95
2022-09-06T20:21:20.675Z,34.01
2022-09-06T20:23:47.079Z,34.40
2022-09-06T20:26:13.466Z,34.15
2022-09-06T20:28:39.856Z,34.52
2022-09-06T20:31:06.439Z,33.24
2022-09-06T20:33:32.890Z,34.07
2022-09-06T20:35:59.483Z,33.65
2022-09-06T20:38:26.059Z,33.87
2022-09-06T20:40:52.465Z,34.08
2022-09-06T20:43:18.828Z,33.50
2022-09-06T20:45:45.203Z,34.37
2022-09-06T20:48:11.590Z,34.81
2022-09-06T20:50:37.927Z,34.25
2022-09-06T20:53:04.333Z,33.28
2022-09-06T20:55:30.684Z,33.15
2022-09-06T20:57:57.078Z,33.21
2022-09-06T21:00:23.449Z,33.23
2022-09-06T21:02:50.046Z,33.09
2022-09-06T21:05:16.415Z,32.61
2022-09-06T21:07:42.764Z,32.73
2022-09-06T21:10:09.126Z,33.91
2022-09-06T21:12:35.478Z,34.71
2022-09-06T21:15:01.898Z,35.18
2022-09-06T21:17:28.286Z,35.59
2022-09-06T21:19:54.644Z,35.72
2022-09-06T21:22:21.029Z,36.34
2022-09-06T21:24:47.365Z,36.25
2022-09-06T21:27:13.731Z,36.16
2022-09-06T21:29:40.072Z,36.02
2022-09-06T21:32:06.470Z,36.55
2022-09-06T21:34:32.828Z,36.32
2022-09-06T21:36:59.201Z,36.54
2022-09-06T21:39:25.630Z,36.64
2022-09-06T21:41:52.118Z,36.59
2022-09-06T21:44:18.478Z,36.93
2022-09-06T21:46:45.014Z,37.02
2022-09-06T21:49:11.468Z,37.39
2022-09-06T21:51:37.840Z,37.23
2022-09-06T21:54:04.250Z,37.01
2022-09-06T21:56:30.616Z,37.13
2022-09-06T21:58:57.017Z,36.69
2022-09-06T22:01:23.472Z,37.00
2022-09-06T22:03:49.926Z,37.18
2022-09-06T22:06:16.391Z,37.06
2022-09-06T22:08:42.811Z,37.30
2022-09-06T22:11:09.276Z,37.49
2022-09-06T22:13:35.680Z,37.48
2022-09-06T22:16:07.070Z,37.29
2022-09-06T22:18:34.211Z,37.32
2022-09-06T22:21:00.654Z,37.25
2022-09-06T22:23:27.120Z,37.75
2022-09-06T22:25:53.538Z,37.45
2022-09-06T22:28:19.988Z,37.82
2022-09-06T22:30:46.427Z,37.69
2022-09-06T22:33:12.845Z,37.22
2022-09-06T22:35:39.291Z,37.85
2022-09-06T22:38:05.725Z,37.68
2022-09-06T22:40:32.197Z,37.72
2022-09-06T22:42:58.615Z,37.49
2022-09-06T22:45:25.032Z,37.76
2022-09-06T22:47:54.266Z,38.09
2022-09-06T22:50:20.719Z,37.93
2022-09-06T22:52:47.163Z,38.09
2022-09-06T22:55:13.600Z,37.64
2022-09-06T22:57:40.079Z,38.02
2022-09-06T23:00:06.524Z,38.22
2022-09-06T23:02:32.956Z,38.18
2022-09-06T23:04:59.467Z,38.36
2022-09-06T23:07:25.948Z,38.41
2022-09-06T23:09:52.402Z,38.33
2022-09-06T23:12:18.870Z,38.57
2022-09-06T23:14:45.344Z,38.25
2022-09-06T23:17:11.751Z,38.63
2022-09-06T23:19:38.163Z,38.49
2022-09-06T23:22:04.596Z,38.68
2022-09-06T23:24:31.013Z,38.56
2022-09-06T23:26:57.436Z,39.03
2022-09-06T23:31:50.329Z,39.02
2022-09-06T23:34:16.838Z,38.81
2022-09-06T23:36:43.264Z,38.86
2022-09-06T23:39:09.730Z,38.51
2022-09-06T23:41:36.164Z,38.92
2022-09-06T23:44:02.588Z,38.71
2022-09-06T23:46:29.079Z,38.74
2022-09-06T23:48:55.579Z,38.64
2022-09-06T23:51:22.027Z,39.01
2022-09-06T23:53:48.512Z,38.68
2022-09-06T23:56:14.997Z,39.15
2022-09-06T23:58:41.443Z,38.83
